sensor_id;sensor_type;location;lat;lon;timestamp;P1;durP1;ratioP1;P2;durP2;ratioP2
5841;SDS011;2947;52.276;9.946;2022-08-11T00:03:04;1.77;;;1.42;;
5841;SDS011;2947;52.276;9.946;2022-08-11T00:05:32;3.75;;;1.23;;
5841;SDS011;2947;52.276;9.946;2022-08-11T00:08:11;9.05;;;1.40;;
5841;SDS011;2947;52.276;9.946;2022-08-11T00:10:50;1.83;;;1.23;;
5841;SDS011;2947;52.276;9.946;2022-08-11T00:13:22;3.17;;;1.83;;
5841;SDS011;2947;52.276;9.946;2022-08-11T00:16:09;2.78;;;1.50;;
5841;SDS011;2947;52.276;9.946;2022-08-11T00:18:38;3.53;;;1.40;;
5841;SDS011;2947;52.276;9.946;2022-08-11T00:21:07;4.65;;;1.52;;
5841;SDS011;2947;52.276;9.946;2022-08-11T00:23:38;3.15;;;1.30;;
5841;SDS011;2947;52.276;9.946;2022-08-11T00:26:17;4.22;;;1.70;;
5841;SDS011;2947;52.276;9.946;2022-08-11T00:28:43;2.85;;;1.70;;
5841;SDS011;2947;52.276;9.946;2022-08-11T00:31:10;1.83;;;1.50;;
5841;SDS011;2947;52.276;9.946;2022-08-11T00:33:48;4.30;;;1.40;;
5841;SDS011;2947;52.276;9.946;2022-08-11T00:36:16;3.58;;;1.33;;
5841;SDS011;2947;52.276;9.946;2022-08-11T00:38:45;2.88;;;1.00;;
5841;SDS011;2947;52.276;9.946;2022-08-11T00:52:54;2.85;;;1.48;;
5841;SDS011;2947;52.276;9.946;2022-08-11T00:56:08;4.20;;;1.50;;
5841;SDS011;2947;52.276;9.946;2022-08-11T01:13:54;3.47;;;1.50;;
5841;SDS011;2947;52.276;9.946;2022-08-11T01:16:57;4.70;;;1.85;;
5841;SDS011;2947;52.276;9.946;2022-08-11T01:23:08;2.55;;;1.42;;
5841;SDS011;2947;52.276;9.946;2022-08-11T01:36:48;3.22;;;1.45;;
5841;SDS011;2947;52.276;9.946;2022-08-11T01:46:27;5.65;;;1.90;;
5841;SDS011;2947;52.276;9.946;2022-08-11T01:49:11;2.10;;;1.90;;
5841;SDS011;2947;52.276;9.946;2022-08-11T01:54:35;3.95;;;1.35;;
5841;SDS011;2947;52.276;9.946;2022-08-11T02:00:25;2.67;;;1.50;;
5841;SDS011;2947;52.276;9.946;2022-08-11T02:02:58;4.70;;;1.40;;
5841;SDS011;2947;52.276;9.946;2022-08-11T02:09:16;3.08;;;1.42;;
5841;SDS011;2947;52.276;9.946;2022-08-11T02:12:14;3.25;;;1.60;;
5841;SDS011;2947;52.276;9.946;2022-08-11T02:15:03;4.95;;;1.52;;
5841;SDS011;2947;52.276;9.946;2022-08-11T02:17:52;4.10;;;2.08;;
5841;SDS011;2947;52.276;9.946;2022-08-11T02:20:49;2.47;;;1.75;;
5841;SDS011;2947;52.276;9.946;2022-08-11T02:23:51;2.33;;;1.52;;
5841;SDS011;2947;52.276;9.946;2022-08-11T02:26:24;2.40;;;1.70;;
5841;SDS011;2947;52.276;9.946;2022-08-11T02:38:36;4.03;;;1.52;;
5841;SDS011;2947;52.276;9.946;2022-08-11T02:41:30;4.07;;;1.95;;
5841;SDS011;2947;52.276;9.946;2022-08-11T02:44:50;2.88;;;1.80;;
5841;SDS011;2947;52.276;9.946;2022-08-11T02:51:04;3.63;;;1.83;;
5841;SDS011;2947;52.276;9.946;2022-08-11T03:05:11;4.45;;;2.17;;
5841;SDS011;2947;52.276;9.946;2022-08-11T03:20:24;2.55;;;1.73;;
5841;SDS011;2947;52.276;9.946;2022-08-11T03:23:34;4.57;;;1.85;;
5841;SDS011;2947;52.276;9.946;2022-08-11T03:26:22;2.80;;;1.98;;
5841;SDS011;2947;52.276;9.946;2022-08-11T03:29:07;3.75;;;2.38;;
5841;SDS011;2947;52.276;9.946;2022-08-11T03:32:49;2.38;;;1.90;;
5841;SDS011;2947;52.276;9.946;2022-08-11T03:34:55;2.63;;;1.90;;
5841;SDS011;2947;52.276;9.946;2022-08-11T03:43:43;4.53;;;2.55;;
5841;SDS011;2947;52.276;9.946;2022-08-11T03:46:26;4.13;;;2.00;;
5841;SDS011;2947;52.276;9.946;2022-08-11T03:51:54;2.28;;;1.60;;
5841;SDS011;2947;52.276;9.946;2022-08-11T04:12:29;7.07;;;2.10;;
5841;SDS011;2947;52.276;9.946;2022-08-11T04:31:25;4.95;;;2.30;;
5841;SDS011;2947;52.276;9.946;2022-08-11T04:48:57;3.45;;;2.30;;
5841;SDS011;2947;52.276;9.946;2022-08-11T04:55:39;2.70;;;2.15;;
5841;SDS011;2947;52.276;9.946;2022-08-11T05:16:58;5.03;;;3.35;;
5841;SDS011;2947;52.276;9.946;2022-08-11T05:19:54;5.85;;;2.58;;
5841;SDS011;2947;52.276;9.946;2022-08-11T05:22:41;6.00;;;2.58;;
5841;SDS011;2947;52.276;9.946;2022-08-11T05:25:31;3.38;;;2.40;;
5841;SDS011;2947;52.276;9.946;2022-08-11T05:31:22;4.97;;;2.65;;
5841;SDS011;2947;52.276;9.946;2022-08-11T05:37:07;4.60;;;2.97;;
5841;SDS011;2947;52.276;9.946;2022-08-11T05:39:43;8.05;;;2.53;;
5841;SDS011;2947;52.276;9.946;2022-08-11T05:42:31;2.80;;;2.35;;
5841;SDS011;2947;52.276;9.946;2022-08-11T05:45:25;4.25;;;2.33;;
5841;SDS011;2947;52.276;9.946;2022-08-11T05:48:11;3.80;;;2.60;;
5841;SDS011;2947;52.276;9.946;2022-08-11T05:50:57;4.50;;;3.63;;
5841;SDS011;2947;52.276;9.946;2022-08-11T05:54:06;3.60;;;2.58;;
5841;SDS011;2947;52.276;9.946;2022-08-11T05:56:52;8.25;;;2.92;;
5841;SDS011;2947;52.276;9.946;2022-08-11T05:59:21;5.18;;;2.28;;
5841;SDS011;2947;52.276;9.946;2022-08-11T06:01:49;10.73;;;3.05;;
5841;SDS011;2947;52.276;9.946;2022-08-11T06:04:20;4.65;;;2.30;;
5841;SDS011;2947;52.276;9.946;2022-08-11T06:07:07;12.43;;;2.40;;
5841;SDS011;2947;52.276;9.946;2022-08-11T06:09:36;7.68;;;2.97;;
5841;SDS011;2947;52.276;9.946;2022-08-11T06:12:16;6.32;;;2.72;;
5841;SDS011;2947;52.276;9.946;2022-08-11T06:14:49;2.80;;;2.25;;
5841;SDS011;2947;52.276;9.946;2022-08-11T06:17:22;3.20;;;2.50;;
5841;SDS011;2947;52.276;9.946;2022-08-11T06:20:05;3.80;;;2.10;;
5841;SDS011;2947;52.276;9.946;2022-08-11T06:22:36;3.88;;;2.60;;
5841;SDS011;2947;52.276;9.946;2022-08-11T06:25:05;5.07;;;2.65;;
5841;SDS011;2947;52.276;9.946;2022-08-11T06:27:34;3.15;;;2.35;;
5841;SDS011;2947;52.276;9.946;2022-08-11T06:30:03;4.22;;;2.33;;
5841;SDS011;2947;52.276;9.946;2022-08-11T06:32:42;12.18;;;2.58;;
5841;SDS011;2947;52.276;9.946;2022-08-11T06:38:13;16.52;;;2.95;;
5841;SDS011;2947;52.276;9.946;2022-08-11T06:41:44;4.55;;;2.50;;
5841;SDS011;2947;52.276;9.946;2022-08-11T06:46:50;5.13;;;2.50;;
5841;SDS011;2947;52.276;9.946;2022-08-11T06:49:19;7.07;;;2.30;;
5841;SDS011;2947;52.276;9.946;2022-08-11T06:52:12;8.20;;;2.42;;
5841;SDS011;2947;52.276;9.946;2022-08-11T06:54:42;5.18;;;2.42;;
5841;SDS011;2947;52.276;9.946;2022-08-11T06:57:16;6.00;;;2.25;;
5841;SDS011;2947;52.276;9.946;2022-08-11T07:00:03;3.67;;;2.60;;
5841;SDS011;2947;52.276;9.946;2022-08-11T07:14:32;4.45;;;2.85;;
5841;SDS011;2947;52.276;9.946;2022-08-11T07:17:21;5.32;;;2.70;;
5841;SDS011;2947;52.276;9.946;2022-08-11T07:19:55;8.93;;;2.92;;
5841;SDS011;2947;52.276;9.946;2022-08-11T07:22:43;9.40;;;2.50;;
5841;SDS011;2947;52.276;9.946;2022-08-11T07:25:41;6.57;;;3.90;;
5841;SDS011;2947;52.276;9.946;2022-08-11T07:28:30;7.03;;;2.75;;
5841;SDS011;2947;52.276;9.946;2022-08-11T07:31:23;10.05;;;3.50;;
5841;SDS011;2947;52.276;9.946;2022-08-11T07:36:50;6.60;;;2.90;;
5841;SDS011;2947;52.276;9.946;2022-08-11T07:39:23;6.78;;;3.10;;
5841;SDS011;2947;52.276;9.946;2022-08-11T07:41:52;9.52;;;2.75;;
5841;SDS011;2947;52.276;9.946;2022-08-11T07:44:21;3.83;;;2.60;;
5841;SDS011;2947;52.276;9.946;2022-08-11T07:46:50;5.25;;;2.45;;
5841;SDS011;2947;52.276;9.946;2022-08-11T07:49:36;8.45;;;2.42;;
5841;SDS011;2947;52.276;9.946;2022-08-11T07:52:22;12.13;;;2.85;;
5841;SDS011;2947;52.276;9.946;2022-08-11T07:54:54;3.08;;;2.58;;
5841;SDS011;2947;52.276;9.946;2022-08-11T07:57:25;4.78;;;2.55;;
5841;SDS011;2947;52.276;9.946;2022-08-11T08:00:10;6.30;;;3.42;;
5841;SDS011;2947;52.276;9.946;2022-08-11T08:02:55;10.18;;;3.35;;
5841;SDS011;2947;52.276;9.946;2022-08-11T08:05:42;4.45;;;2.60;;
5841;SDS011;2947;52.276;9.946;2022-08-11T08:08:29;8.73;;;2.97;;
5841;SDS011;2947;52.276;9.946;2022-08-11T08:11:14;5.05;;;2.58;;
5841;SDS011;2947;52.276;9.946;2022-08-11T08:13:59;7.00;;;2.95;;
5841;SDS011;2947;52.276;9.946;2022-08-11T08:16:45;8.40;;;3.10;;
5841;SDS011;2947;52.276;9.946;2022-08-11T08:19:29;8.95;;;3.17;;
5841;SDS011;2947;52.276;9.946;2022-08-11T08:21:56;7.57;;;3.42;;
5841;SDS011;2947;52.276;9.946;2022-08-11T08:24:22;4.28;;;2.80;;
5841;SDS011;2947;52.276;9.946;2022-08-11T08:26:48;3.15;;;2.45;;
5841;SDS011;2947;52.276;9.946;2022-08-11T08:29:33;7.70;;;2.85;;
5841;SDS011;2947;52.276;9.946;2022-08-11T08:32:19;3.67;;;2.42;;
5841;SDS011;2947;52.276;9.946;2022-08-11T08:34:48;4.35;;;2.70;;
5841;SDS011;2947;52.276;9.946;2022-08-11T08:37:19;5.10;;;2.95;;
5841;SDS011;2947;52.276;9.946;2022-08-11T08:39:53;5.55;;;2.80;;
5841;SDS011;2947;52.276;9.946;2022-08-11T08:42:22;26.70;;;3.20;;
5841;SDS011;2947;52.276;9.946;2022-08-11T08:45:00;4.40;;;2.72;;
5841;SDS011;2947;52.276;9.946;2022-08-11T08:47:34;7.45;;;3.47;;
5841;SDS011;2947;52.276;9.946;2022-08-11T08:50:06;8.68;;;3.38;;
5841;SDS011;2947;52.276;9.946;2022-08-11T08:52:37;6.80;;;3.35;;
5841;SDS011;2947;52.276;9.946;2022-08-11T08:55:08;7.32;;;3.50;;
5841;SDS011;2947;52.276;9.946;2022-08-11T08:57:41;8.35;;;4.20;;
5841;SDS011;2947;52.276;9.946;2022-08-11T09:00:09;5.63;;;3.50;;
5841;SDS011;2947;52.276;9.946;2022-08-11T09:02:38;7.35;;;3.75;;
5841;SDS011;2947;52.276;9.946;2022-08-11T09:05:05;5.25;;;3.15;;
5841;SDS011;2947;52.276;9.946;2022-08-11T09:07:33;3.97;;;2.67;;
5841;SDS011;2947;52.276;9.946;2022-08-11T09:10:00;5.00;;;3.63;;
5841;SDS011;2947;52.276;9.946;2022-08-11T09:12:28;8.50;;;2.80;;
5841;SDS011;2947;52.276;9.946;2022-08-11T09:14:56;6.72;;;3.03;;
5841;SDS011;2947;52.276;9.946;2022-08-11T09:17:28;6.85;;;3.30;;
5841;SDS011;2947;52.276;9.946;2022-08-11T09:22:33;6.50;;;2.75;;
5841;SDS011;2947;52.276;9.946;2022-08-11T09:25:21;4.82;;;2.63;;
5841;SDS011;2947;52.276;9.946;2022-08-11T09:28:09;5.75;;;2.42;;
5841;SDS011;2947;52.276;9.946;2022-08-11T09:30:39;4.68;;;2.50;;
5841;SDS011;2947;52.276;9.946;2022-08-11T09:33:08;3.10;;;2.10;;
5841;SDS011;2947;52.276;9.946;2022-08-11T09:35:36;3.35;;;2.28;;
5841;SDS011;2947;52.276;9.946;2022-08-11T09:38:06;3.78;;;2.47;;
5841;SDS011;2947;52.276;9.946;2022-08-11T09:40:54;3.40;;;2.05;;
5841;SDS011;2947;52.276;9.946;2022-08-11T09:43:21;3.03;;;2.47;;
5841;SDS011;2947;52.276;9.946;2022-08-11T09:46:07;6.78;;;2.85;;
5841;SDS011;2947;52.276;9.946;2022-08-11T09:48:44;6.00;;;2.33;;
5841;SDS011;2947;52.276;9.946;2022-08-11T09:51:11;10.23;;;2.30;;
5841;SDS011;2947;52.276;9.946;2022-08-11T09:53:38;4.03;;;2.45;;
5841;SDS011;2947;52.276;9.946;2022-08-11T09:56:12;6.85;;;2.78;;
5841;SDS011;2947;52.276;9.946;2022-08-11T09:59:00;3.58;;;2.50;;
5841;SDS011;2947;52.276;9.946;2022-08-11T10:01:33;3.42;;;2.67;;
5841;SDS011;2947;52.276;9.946;2022-08-11T10:04:17;4.47;;;2.42;;
5841;SDS011;2947;52.276;9.946;2022-08-11T10:06:55;10.45;;;2.33;;
5841;SDS011;2947;52.276;9.946;2022-08-11T10:12:32;6.78;;;2.38;;
5841;SDS011;2947;52.276;9.946;2022-08-11T10:15:08;4.22;;;2.35;;
5841;SDS011;2947;52.276;9.946;2022-08-11T10:21:00;3.97;;;2.70;;
5841;SDS011;2947;52.276;9.946;2022-08-11T10:23:34;5.18;;;2.63;;
5841;SDS011;2947;52.276;9.946;2022-08-11T10:26:21;4.63;;;2.15;;
5841;SDS011;2947;52.276;9.946;2022-08-11T10:29:10;2.00;;;1.70;;
5841;SDS011;2947;52.276;9.946;2022-08-11T10:31:57;2.47;;;2.13;;
5841;SDS011;2947;52.276;9.946;2022-08-11T10:34:42;4.88;;;2.17;;
5841;SDS011;2947;52.276;9.946;2022-08-11T10:37:12;2.53;;;2.08;;
5841;SDS011;2947;52.276;9.946;2022-08-11T10:39:40;4.47;;;2.05;;
5841;SDS011;2947;52.276;9.946;2022-08-11T10:42:07;6.03;;;2.55;;
5841;SDS011;2947;52.276;9.946;2022-08-11T10:44:55;3.83;;;2.03;;
5841;SDS011;2947;52.276;9.946;2022-08-11T10:47:23;3.28;;;2.28;;
5841;SDS011;2947;52.276;9.946;2022-08-11T10:50:00;5.07;;;2.80;;
5841;SDS011;2947;52.276;9.946;2022-08-11T10:52:51;4.13;;;2.05;;
5841;SDS011;2947;52.276;9.946;2022-08-11T10:55:37;6.85;;;2.97;;
5841;SDS011;2947;52.276;9.946;2022-08-11T10:58:25;7.35;;;2.50;;
5841;SDS011;2947;52.276;9.946;2022-08-11T11:01:10;8.27;;;2.25;;
5841;SDS011;2947;52.276;9.946;2022-08-11T11:03:38;5.22;;;2.45;;
5841;SDS011;2947;52.276;9.946;2022-08-11T11:06:24;4.97;;;2.17;;
5841;SDS011;2947;52.276;9.946;2022-08-11T11:09:02;2.90;;;2.50;;
5841;SDS011;2947;52.276;9.946;2022-08-11T11:11:33;5.00;;;2.70;;
5841;SDS011;2947;52.276;9.946;2022-08-11T11:14:21;4.85;;;2.50;;
5841;SDS011;2947;52.276;9.946;2022-08-11T11:17:12;4.07;;;2.38;;
5841;SDS011;2947;52.276;9.946;2022-08-11T11:19:45;3.00;;;2.35;;
5841;SDS011;2947;52.276;9.946;2022-08-11T11:22:13;7.03;;;2.60;;
5841;SDS011;2947;52.276;9.946;2022-08-11T11:27:55;4.68;;;2.30;;
5841;SDS011;2947;52.276;9.946;2022-08-11T11:30:44;5.80;;;2.13;;
5841;SDS011;2947;52.276;9.946;2022-08-11T11:39:18;3.40;;;2.40;;
5841;SDS011;2947;52.276;9.946;2022-08-11T11:41:51;3.72;;;2.28;;
5841;SDS011;2947;52.276;9.946;2022-08-11T11:44:20;3.17;;;2.55;;
5841;SDS011;2947;52.276;9.946;2022-08-11T11:46:48;3.63;;;1.92;;
5841;SDS011;2947;52.276;9.946;2022-08-11T11:49:16;7.50;;;2.00;;
5841;SDS011;2947;52.276;9.946;2022-08-11T11:51:45;6.28;;;2.35;;
5841;SDS011;2947;52.276;9.946;2022-08-11T11:54:16;4.18;;;2.47;;
5841;SDS011;2947;52.276;9.946;2022-08-11T11:56:45;2.85;;;2.20;;
5841;SDS011;2947;52.276;9.946;2022-08-11T11:59:11;4.28;;;2.33;;
5841;SDS011;2947;52.276;9.946;2022-08-11T12:01:57;4.40;;;1.70;;
5841;SDS011;2947;52.276;9.946;2022-08-11T12:04:24;3.55;;;2.03;;
5841;SDS011;2947;52.276;9.946;2022-08-11T12:06:52;6.78;;;2.38;;
5841;SDS011;2947;52.276;9.946;2022-08-11T12:09:38;6.25;;;2.20;;
5841;SDS011;2947;52.276;9.946;2022-08-11T12:12:05;3.63;;;2.33;;
5841;SDS011;2947;52.276;9.946;2022-08-11T12:14:50;3.85;;;1.90;;
5841;SDS011;2947;52.276;9.946;2022-08-11T12:17:18;4.60;;;2.00;;
5841;SDS011;2947;52.276;9.946;2022-08-11T12:19:44;5.78;;;2.00;;
5841;SDS011;2947;52.276;9.946;2022-08-11T12:22:11;4.20;;;2.20;;
5841;SDS011;2947;52.276;9.946;2022-08-11T12:24:56;6.30;;;2.47;;
5841;SDS011;2947;52.276;9.946;2022-08-11T12:27:41;4.68;;;2.20;;
5841;SDS011;2947;52.276;9.946;2022-08-11T12:30:07;2.92;;;2.03;;
5841;SDS011;2947;52.276;9.946;2022-08-11T12:32:35;10.05;;;2.10;;
5841;SDS011;2947;52.276;9.946;2022-08-11T12:35:03;3.83;;;2.28;;
5841;SDS011;2947;52.276;9.946;2022-08-11T12:37:34;3.15;;;1.92;;
5841;SDS011;2947;52.276;9.946;2022-08-11T12:40:06;6.97;;;1.85;;
5841;SDS011;2947;52.276;9.946;2022-08-11T12:42:58;3.75;;;1.88;;
5841;SDS011;2947;52.276;9.946;2022-08-11T12:45:47;3.42;;;2.40;;
5841;SDS011;2947;52.276;9.946;2022-08-11T12:48:24;3.78;;;2.15;;
5841;SDS011;2947;52.276;9.946;2022-08-11T12:51:15;3.38;;;3.08;;
5841;SDS011;2947;52.276;9.946;2022-08-11T12:54:12;4.88;;;2.40;;
5841;SDS011;2947;52.276;9.946;2022-08-11T12:56:43;4.85;;;2.35;;
5841;SDS011;2947;52.276;9.946;2022-08-11T12:59:38;5.25;;;2.25;;
5841;SDS011;2947;52.276;9.946;2022-08-11T13:02:23;3.55;;;2.05;;
5841;SDS011;2947;52.276;9.946;2022-08-11T13:05:10;5.65;;;3.05;;
5841;SDS011;2947;52.276;9.946;2022-08-11T13:07:38;8.25;;;2.22;;
5841;SDS011;2947;52.276;9.946;2022-08-11T13:10:08;3.00;;;2.40;;
5841;SDS011;2947;52.276;9.946;2022-08-11T13:12:35;6.18;;;2.58;;
5841;SDS011;2947;52.276;9.946;2022-08-11T13:15:23;7.15;;;2.60;;
5841;SDS011;2947;52.276;9.946;2022-08-11T13:17:50;3.05;;;2.42;;
5841;SDS011;2947;52.276;9.946;2022-08-11T13:20:20;4.50;;;2.60;;
5841;SDS011;2947;52.276;9.946;2022-08-11T13:22:48;3.42;;;2.00;;
5841;SDS011;2947;52.276;9.946;2022-08-11T13:25:17;3.78;;;2.33;;
5841;SDS011;2947;52.276;9.946;2022-08-11T13:27:46;3.00;;;2.40;;
5841;SDS011;2947;52.276;9.946;2022-08-11T13:30:14;11.27;;;2.50;;
5841;SDS011;2947;52.276;9.946;2022-08-11T13:32:59;4.65;;;2.70;;
5841;SDS011;2947;52.276;9.946;2022-08-11T13:35:29;2.97;;;2.10;;
5841;SDS011;2947;52.276;9.946;2022-08-11T13:37:57;8.02;;;2.60;;
5841;SDS011;2947;52.276;9.946;2022-08-11T13:40:25;3.60;;;2.10;;
5841;SDS011;2947;52.276;9.946;2022-08-11T13:42:52;6.70;;;2.60;;
5841;SDS011;2947;52.276;9.946;2022-08-11T13:45:19;3.33;;;2.70;;
5841;SDS011;2947;52.276;9.946;2022-08-11T13:47:47;2.78;;;2.33;;
5841;SDS011;2947;52.276;9.946;2022-08-11T13:50:20;3.72;;;2.20;;
5841;SDS011;2947;52.276;9.946;2022-08-11T13:53:07;3.70;;;2.00;;
5841;SDS011;2947;52.276;9.946;2022-08-11T13:55:35;3.85;;;2.60;;
5841;SDS011;2947;52.276;9.946;2022-08-11T13:58:03;5.15;;;2.70;;
5841;SDS011;2947;52.276;9.946;2022-08-11T14:00:30;4.20;;;2.42;;
5841;SDS011;2947;52.276;9.946;2022-08-11T14:02:56;3.63;;;2.38;;
5841;SDS011;2947;52.276;9.946;2022-08-11T14:05:27;3.47;;;2.00;;
5841;SDS011;2947;52.276;9.946;2022-08-11T14:07:58;4.30;;;2.30;;
5841;SDS011;2947;52.276;9.946;2022-08-11T14:10:33;3.70;;;2.50;;
5841;SDS011;2947;52.276;9.946;2022-08-11T14:13:05;3.63;;;2.05;;
5841;SDS011;2947;52.276;9.946;2022-08-11T14:15:57;4.60;;;2.00;;
5841;SDS011;2947;52.276;9.946;2022-08-11T14:18:29;3.85;;;2.10;;
5841;SDS011;2947;52.276;9.946;2022-08-11T14:20:57;4.43;;;2.22;;
5841;SDS011;2947;52.276;9.946;2022-08-11T14:23:46;6.38;;;2.20;;
5841;SDS011;2947;52.276;9.946;2022-08-11T14:26:19;4.15;;;2.30;;
5841;SDS011;2947;52.276;9.946;2022-08-11T14:29:05;4.38;;;2.17;;
5841;SDS011;2947;52.276;9.946;2022-08-11T14:31:46;5.82;;;1.90;;
5841;SDS011;2947;52.276;9.946;2022-08-11T14:34:26;3.22;;;2.33;;
5841;SDS011;2947;52.276;9.946;2022-08-11T14:37:01;4.25;;;2.22;;
5841;SDS011;2947;52.276;9.946;2022-08-11T14:39:35;4.75;;;2.22;;
5841;SDS011;2947;52.276;9.946;2022-08-11T14:42:12;5.60;;;2.22;;
5841;SDS011;2947;52.276;9.946;2022-08-11T14:45:08;7.22;;;1.98;;
5841;SDS011;2947;52.276;9.946;2022-08-11T14:47:56;13.40;;;2.13;;
5841;SDS011;2947;52.276;9.946;2022-08-11T14:50:26;4.97;;;2.40;;
5841;SDS011;2947;52.276;9.946;2022-08-11T14:52:55;3.42;;;2.58;;
5841;SDS011;2947;52.276;9.946;2022-08-11T14:55:25;3.83;;;2.42;;
5841;SDS011;2947;52.276;9.946;2022-08-11T14:58:14;3.42;;;2.13;;
5841;SDS011;2947;52.276;9.946;2022-08-11T15:00:42;4.55;;;1.98;;
5841;SDS011;2947;52.276;9.946;2022-08-11T15:03:10;2.13;;;1.85;;
5841;SDS011;2947;52.276;9.946;2022-08-11T15:05:40;2.67;;;1.95;;
5841;SDS011;2947;52.276;9.946;2022-08-11T15:08:16;6.13;;;2.50;;
5841;SDS011;2947;52.276;9.946;2022-08-11T15:10:44;4.30;;;2.17;;
5841;SDS011;2947;52.276;9.946;2022-08-11T15:13:14;2.60;;;2.08;;
5841;SDS011;2947;52.276;9.946;2022-08-11T15:15:42;3.78;;;2.17;;
5841;SDS011;2947;52.276;9.946;2022-08-11T15:18:28;3.80;;;2.00;;
5841;SDS011;2947;52.276;9.946;2022-08-11T15:20:55;4.28;;;2.40;;
5841;SDS011;2947;52.276;9.946;2022-08-11T15:23:39;4.78;;;1.65;;
5841;SDS011;2947;52.276;9.946;2022-08-11T15:26:29;3.55;;;2.00;;
5841;SDS011;2947;52.276;9.946;2022-08-11T15:29:26;4.32;;;2.08;;
5841;SDS011;2947;52.276;9.946;2022-08-11T15:32:13;5.97;;;2.15;;
5841;SDS011;2947;52.276;9.946;2022-08-11T15:35:01;7.28;;;2.00;;
5841;SDS011;2947;52.276;9.946;2022-08-11T15:38:00;8.10;;;2.00;;
5841;SDS011;2947;52.276;9.946;2022-08-11T15:40:28;4.75;;;2.15;;
5841;SDS011;2947;52.276;9.946;2022-08-11T15:46:13;3.33;;;2.05;;
5841;SDS011;2947;52.276;9.946;2022-08-11T15:49:03;3.72;;;2.00;;
5841;SDS011;2947;52.276;9.946;2022-08-11T15:51:47;3.00;;;2.05;;
5841;SDS011;2947;52.276;9.946;2022-08-11T15:54:23;3.55;;;1.80;;
5841;SDS011;2947;52.276;9.946;2022-08-11T15:56:55;3.55;;;1.80;;
5841;SDS011;2947;52.276;9.946;2022-08-11T15:59:25;3.38;;;1.95;;
5841;SDS011;2947;52.276;9.946;2022-08-11T16:02:14;5.20;;;1.98;;
5841;SDS011;2947;52.276;9.946;2022-08-11T16:05:05;2.40;;;1.58;;
5841;SDS011;2947;52.276;9.946;2022-08-11T16:07:37;2.97;;;1.85;;
5841;SDS011;2947;52.276;9.946;2022-08-11T16:10:06;3.85;;;1.70;;
5841;SDS011;2947;52.276;9.946;2022-08-11T16:12:45;3.00;;;2.05;;
5841;SDS011;2947;52.276;9.946;2022-08-11T16:15:44;3.65;;;1.90;;
5841;SDS011;2947;52.276;9.946;2022-08-11T16:18:37;4.25;;;2.00;;
5841;SDS011;2947;52.276;9.946;2022-08-11T16:21:09;5.13;;;2.15;;
5841;SDS011;2947;52.276;9.946;2022-08-11T16:23:39;2.83;;;2.00;;
5841;SDS011;2947;52.276;9.946;2022-08-11T16:26:09;2.90;;;2.00;;
5841;SDS011;2947;52.276;9.946;2022-08-11T16:28:37;3.33;;;2.10;;
5841;SDS011;2947;52.276;9.946;2022-08-11T16:31:04;4.57;;;1.85;;
5841;SDS011;2947;52.276;9.946;2022-08-11T16:33:34;6.78;;;2.08;;
5841;SDS011;2947;52.276;9.946;2022-08-11T16:36:05;3.00;;;2.33;;
5841;SDS011;2947;52.276;9.946;2022-08-11T16:38:51;5.20;;;1.80;;
5841;SDS011;2947;52.276;9.946;2022-08-11T16:41:20;3.28;;;2.42;;
5841;SDS011;2947;52.276;9.946;2022-08-11T16:44:08;2.80;;;1.90;;
5841;SDS011;2947;52.276;9.946;2022-08-11T16:46:54;3.20;;;2.15;;
5841;SDS011;2947;52.276;9.946;2022-08-11T16:51:57;3.05;;;2.30;;
5841;SDS011;2947;52.276;9.946;2022-08-11T16:54:27;9.25;;;2.22;;
5841;SDS011;2947;52.276;9.946;2022-08-11T16:56:59;3.88;;;2.05;;
5841;SDS011;2947;52.276;9.946;2022-08-11T16:59:49;2.25;;;1.80;;
5841;SDS011;2947;52.276;9.946;2022-08-11T17:02:18;3.00;;;1.75;;
5841;SDS011;2947;52.276;9.946;2022-08-11T17:05:07;4.03;;;1.70;;
5841;SDS011;2947;52.276;9.946;2022-08-11T17:07:57;3.42;;;1.95;;
5841;SDS011;2947;52.276;9.946;2022-08-11T17:10:49;2.80;;;1.88;;
5841;SDS011;2947;52.276;9.946;2022-08-11T17:13:58;3.95;;;2.03;;
5841;SDS011;2947;52.276;9.946;2022-08-11T17:16:36;3.85;;;2.20;;
5841;SDS011;2947;52.276;9.946;2022-08-11T17:21:37;5.25;;;2.10;;
5841;SDS011;2947;52.276;9.946;2022-08-11T17:24:25;4.05;;;1.85;;
5841;SDS011;2947;52.276;9.946;2022-08-11T17:26:53;5.85;;;2.20;;
5841;SDS011;2947;52.276;9.946;2022-08-11T17:32:06;2.92;;;2.00;;
5841;SDS011;2947;52.276;9.946;2022-08-11T17:35:17;3.78;;;1.95;;
5841;SDS011;2947;52.276;9.946;2022-08-11T17:38:03;6.32;;;2.22;;
5841;SDS011;2947;52.276;9.946;2022-08-11T17:40:36;11.25;;;2.53;;
5841;SDS011;2947;52.276;9.946;2022-08-11T17:43:26;9.57;;;2.40;;
5841;SDS011;2947;52.276;9.946;2022-08-11T17:46:13;4.13;;;1.90;;
5841;SDS011;2947;52.276;9.946;2022-08-11T17:48:59;2.72;;;1.75;;
5841;SDS011;2947;52.276;9.946;2022-08-11T17:51:27;6.88;;;4.72;;
5841;SDS011;2947;52.276;9.946;2022-08-11T17:54:12;4.40;;;1.85;;
5841;SDS011;2947;52.276;9.946;2022-08-11T17:56:58;2.95;;;1.65;;
5841;SDS011;2947;52.276;9.946;2022-08-11T17:59:43;5.28;;;2.70;;
5841;SDS011;2947;52.276;9.946;2022-08-11T18:02:28;3.35;;;2.00;;
5841;SDS011;2947;52.276;9.946;2022-08-11T18:05:17;4.57;;;2.20;;
5841;SDS011;2947;52.276;9.946;2022-08-11T18:07:46;3.83;;;2.08;;
5841;SDS011;2947;52.276;9.946;2022-08-11T18:10:33;4.80;;;2.13;;
5841;SDS011;2947;52.276;9.946;2022-08-11T18:13:22;4.45;;;2.17;;
5841;SDS011;2947;52.276;9.946;2022-08-11T18:16:08;3.63;;;2.00;;
5841;SDS011;2947;52.276;9.946;2022-08-11T18:18:53;4.97;;;2.05;;
5841;SDS011;2947;52.276;9.946;2022-08-11T18:21:41;3.40;;;1.83;;
5841;SDS011;2947;52.276;9.946;2022-08-11T18:24:28;5.55;;;2.08;;
5841;SDS011;2947;52.276;9.946;2022-08-11T18:27:16;2.90;;;2.30;;
5841;SDS011;2947;52.276;9.946;2022-08-11T18:30:03;11.07;;;1.88;;
5841;SDS011;2947;52.276;9.946;2022-08-11T18:32:49;3.30;;;2.10;;
5841;SDS011;2947;52.276;9.946;2022-08-11T18:35:37;3.03;;;2.25;;
5841;SDS011;2947;52.276;9.946;2022-08-11T18:38:24;3.03;;;2.40;;
5841;SDS011;2947;52.276;9.946;2022-08-11T18:41:11;2.70;;;2.03;;
5841;SDS011;2947;52.276;9.946;2022-08-11T18:43:57;9.38;;;2.33;;
5841;SDS011;2947;52.276;9.946;2022-08-11T18:46:45;4.13;;;2.00;;
5841;SDS011;2947;52.276;9.946;2022-08-11T18:49:34;4.80;;;2.17;;
5841;SDS011;2947;52.276;9.946;2022-08-11T18:52:21;9.38;;;3.78;;
5841;SDS011;2947;52.276;9.946;2022-08-11T18:55:10;7.13;;;3.28;;
5841;SDS011;2947;52.276;9.946;2022-08-11T18:57:57;12.98;;;4.97;;
5841;SDS011;2947;52.276;9.946;2022-08-11T19:00:46;7.57;;;3.47;;
5841;SDS011;2947;52.276;9.946;2022-08-11T19:03:30;3.20;;;2.35;;
5841;SDS011;2947;52.276;9.946;2022-08-11T19:06:18;4.65;;;2.55;;
5841;SDS011;2947;52.276;9.946;2022-08-11T19:09:05;7.35;;;1.88;;
5841;SDS011;2947;52.276;9.946;2022-08-11T19:11:55;5.40;;;2.00;;
5841;SDS011;2947;52.276;9.946;2022-08-11T19:14:41;4.03;;;2.20;;
5841;SDS011;2947;52.276;9.946;2022-08-11T19:17:27;5.40;;;2.00;;
5841;SDS011;2947;52.276;9.946;2022-08-11T19:20:16;2.72;;;2.08;;
5841;SDS011;2947;52.276;9.946;2022-08-11T19:23:04;4.97;;;2.08;;
5841;SDS011;2947;52.276;9.946;2022-08-11T19:25:51;12.95;;;2.50;;
5841;SDS011;2947;52.276;9.946;2022-08-11T19:28:38;5.13;;;2.20;;
5841;SDS011;2947;52.276;9.946;2022-08-11T19:31:24;4.05;;;2.08;;
5841;SDS011;2947;52.276;9.946;2022-08-11T19:34:14;3.83;;;2.10;;
5841;SDS011;2947;52.276;9.946;2022-08-11T19:37:03;2.90;;;2.17;;
5841;SDS011;2947;52.276;9.946;2022-08-11T19:39:50;3.22;;;2.03;;
5841;SDS011;2947;52.276;9.946;2022-08-11T19:42:42;3.92;;;2.10;;
5841;SDS011;2947;52.276;9.946;2022-08-11T19:45:28;5.50;;;2.00;;
5841;SDS011;2947;52.276;9.946;2022-08-11T19:48:13;10.35;;;2.35;;
5841;SDS011;2947;52.276;9.946;2022-08-11T19:50:58;7.13;;;3.72;;
5841;SDS011;2947;52.276;9.946;2022-08-11T19:53:45;7.97;;;2.22;;
5841;SDS011;2947;52.276;9.946;2022-08-11T19:56:31;3.13;;;2.22;;
5841;SDS011;2947;52.276;9.946;2022-08-11T19:59:16;4.32;;;2.03;;
5841;SDS011;2947;52.276;9.946;2022-08-11T20:02:02;6.50;;;2.50;;
5841;SDS011;2947;52.276;9.946;2022-08-11T20:04:46;5.93;;;2.00;;
5841;SDS011;2947;52.276;9.946;2022-08-11T20:07:30;3.53;;;2.10;;
5841;SDS011;2947;52.276;9.946;2022-08-11T20:10:16;8.55;;;2.47;;
5841;SDS011;2947;52.276;9.946;2022-08-11T20:13:06;4.32;;;2.80;;
5841;SDS011;2947;52.276;9.946;2022-08-11T20:15:52;8.55;;;3.47;;
5841;SDS011;2947;52.276;9.946;2022-08-11T20:18:40;8.20;;;2.80;;
5841;SDS011;2947;52.276;9.946;2022-08-11T20:21:26;12.75;;;2.50;;
5841;SDS011;2947;52.276;9.946;2022-08-11T20:24:11;8.75;;;2.63;;